Dickinson Theodore Roosevelt Regional Airport
KDIK : now visible

Airfield :











YOU CAN JOIN US ON...

 
LOGIN :

Register | Disclaimer

   EN    FR    IT 

 









Legend :    VFR   Marginal VFR   IFR   Intensive IFR   Very Intensive IFR
Visi :
Ceiling :
>= 8 km
>= 3000ft
5 to 8 km
1000 to 3000 ft
1500m to 5 km
500 to 1000 ft
800 to 1500m
200 to 500 ft
< 800m
< 200 ft
Symbols :   Thunderstorms  Fog  Heavy snow  Heavy precipitations  Wind > 20 kt






- Airport Elevation : 2592 ft


KDIK - Dickinson Theodore Roosevelt Regional

CURRENT METAR :
  • 071456Z AUTO 17006KT 10SM CLR 24/13 A2974 RMK AO2 SLP049 T02440133 50002

EXPIRED METARs :
  • 071356Z AUTO 13007KT 10SM CLR 20/14 A2974 RMK AO2 SLP053 T02000144
  • 071256Z AUTO 18006KT 10SM CLR 17/14 A2975 RMK AO2 SLP054 T01670139

TAF KDIK
Valid from the 07 at 12:00 until the 08 at 12:00 UTC


071120Z 0712/0812 13007KT P6SM SCT090 SCT150
FM071800 24013G21KT P6SM SCT150
FM080000 31017G25KT P6SM SKC
FM080400 32010KT P6SM SKC
KZMP FIR / North America



MET'MAP, your aeronautical weather chart ! - Copyright ORBIFLY December 2007 - Disclaimer

ORBIFLY MET'MAP TEAM :

Programming & Development : Alexandra Zaïnal
Concept & original design : Baudouin d'Aumeries
Assistance for programming : Marc-Olivier Méhu
Technical & hardware support : Manuel Goepfert

Contact : metmap@orbifly.com




SOURCES & CREDITS :

   NOAA       Earth
Advisory